Time;durP1;ratioP1;P1;durP2;ratioP2;P2;SDS_P1;SDS_P2;PMS_P1;PMS_P2;Temp;Humidity;BMP_temperature;BMP_pressure;BME280_temperature;BME280_humidity;BME280_pressure;Samples;Min_cycle;Max_cycle;Signal;HPM_P1;HPM_P2
2022/03/08 00:00:19;;;;;;;17.43;8.50;;;-1.90;1.00;;;;;;4914947;29;20056;-90
2022/03/08 00:02:48;;;;;;;14.20;8.20;;;-2.00;1.00;;;;;;4910881;29;20054;-95
2022/03/08 00:05:18;;;;;;;10.90;6.53;;;-2.20;1.00;;;;;;4914549;29;20048;-96
2022/03/08 00:07:46;;;;;;;12.23;5.90;;;-1.60;1.00;;;;;;4898856;29;20135;-90
2022/03/08 00:10:16;;;;;;;9.17;6.13;;;-2.30;1.00;;;;;;4899895;29;20455;-96
2022/03/08 00:12:51;;;;;;;10.20;5.77;;;-2.30;1.00;;;;;;4909595;29;20127;-96
2022/03/08 00:15:21;;;;;;;10.33;5.50;;;-2.40;1.00;;;;;;4911494;29;20043;-94
2022/03/08 00:17:50;;;;;;;9.30;6.00;;;-2.60;1.00;;;;;;4909267;29;20053;-89
2022/03/08 00:20:17;;;;;;;10.33;5.80;;;-2.70;1.00;;;;;;4910678;29;20063;-96
2022/03/08 00:22:44;;;;;;;9.40;5.97;;;-2.40;1.00;;;;;;4911881;29;20063;-95
2022/03/08 00:25:11;;;;;;;12.07;6.20;;;-2.80;1.00;;;;;;4909221;29;20048;-90
2022/03/08 00:27:38;;;;;;;10.90;5.57;;;-2.80;1.00;;;;;;4893855;29;20095;-90
2022/03/08 00:30:06;;;;;;;12.83;5.73;;;-2.90;1.00;;;;;;4908969;29;20043;-90
2022/03/08 00:32:32;;;;;;;10.70;5.40;;;-3.00;1.00;;;;;;4909334;29;20052;-96
2022/03/08 00:34:58;;;;;;;7.27;4.93;;;-3.10;1.00;;;;;;4907904;29;20048;-95
2022/03/08 00:37:24;;;;;;;9.47;6.10;;;-3.00;1.00;;;;;;4908242;29;20538;-96
2022/03/08 00:39:50;;;;;;;8.40;5.27;;;-3.20;1.00;;;;;;4906125;29;20456;-90
2022/03/08 00:42:16;;;;;;;10.80;6.10;;;-2.40;1.00;;;;;;4906485;29;20054;-96
2022/03/08 00:44:42;;;;;;;10.73;5.07;;;-3.20;1.00;;;;;;4905167;29;20043;-90
2022/03/08 00:47:09;;;;;;;9.73;5.90;;;-3.20;1.00;;;;;;4905118;29;20052;-89
2022/03/08 00:49:35;;;;;;;10.80;6.30;;;-3.30;1.00;;;;;;4905674;29;20080;-95
2022/03/08 00:52:02;;;;;;;8.10;5.23;;;-3.10;1.00;;;;;;4905917;29;20048;-90
2022/03/08 00:54:28;;;;;;;12.50;5.87;;;-3.30;1.00;;;;;;4904754;29;20055;-90
2022/03/08 00:56:54;;;;;;;9.73;5.97;;;-3.40;1.00;;;;;;4904874;29;20115;-90
2022/03/08 00:59:23;;;;;;;9.67;6.50;;;-3.20;1.00;;;;;;4889311;29;20059;-89
2022/03/08 01:01:49;;;;;;;11.30;6.73;;;-3.40;1.00;;;;;;4919587;29;20047;-95
2022/03/08 01:04:14;;;;;;;11.67;6.23;;;-3.40;1.00;;;;;;4904551;29;20059;-93
2022/03/08 01:06:43;;;;;;;12.10;6.43;;;-3.10;1.00;;;;;;4905757;29;20399;-96
2022/03/08 01:09:10;;;;;;;13.37;5.97;;;-3.40;1.00;;;;;;4904327;29;20064;-88
2022/03/08 01:11:39;;;;;;;9.90;5.30;;;-3.40;1.00;;;;;;4889811;29;20103;-89
2022/03/08 01:14:07;;;;;;;11.63;5.90;;;-3.50;1.00;;;;;;4904019;29;20502;-89
2022/03/08 01:16:36;;;;;;;11.27;5.97;;;-3.60;1.00;;;;;;4888328;29;20039;-95
2022/03/08 01:19:04;;;;;;;10.67;6.07;;;-3.60;1.00;;;;;;4904448;29;20187;-96
2022/03/08 01:21:30;;;;;;;9.57;6.03;;;-3.60;1.00;;;;;;4903874;29;20047;-89
2022/03/08 01:23:56;;;;;;;12.17;6.97;;;-2.80;1.00;;;;;;4903088;29;20084;-90
2022/03/08 01:26:22;;;;;;;10.97;6.67;;;-3.60;1.00;;;;;;4903535;29;20126;-89
2022/03/08 01:28:48;;;;;;;11.77;7.10;;;-3.40;1.00;;;;;;4919510;29;20052;-90
2022/03/08 01:31:14;;;;;;;14.17;7.20;;;-3.60;1.00;;;;;;4887795;29;20044;-96
2022/03/08 01:33:39;;;;;;;10.93;5.90;;;-3.60;1.00;;;;;;4888403;29;20051;-89
2022/03/08 01:36:06;;;;;;;11.97;7.30;;;-3.60;1.00;;;;;;4887670;29;20067;-96
2022/03/08 01:38:32;;;;;;;10.67;6.63;;;-3.70;1.00;;;;;;4887913;29;20058;-95
2022/03/08 01:40:59;;;;;;;15.13;7.63;;;-3.80;1.00;;;;;;4903138;29;20079;-96
2022/03/08 01:43:25;;;;;;;13.80;7.90;;;-3.80;1.00;;;;;;4903523;29;20039;-90
2022/03/08 01:45:51;;;;;;;11.70;8.20;;;-3.70;1.00;;;;;;4903468;29;20048;-96
2022/03/08 01:48:16;;;;;;;13.10;7.27;;;-3.80;1.00;;;;;;4902996;29;20044;-89
2022/03/08 01:50:42;;;;;;;14.97;8.03;;;-3.80;1.00;;;;;;4887549;29;20047;-93
2022/03/08 01:53:08;;;;;;;14.43;7.50;;;-3.70;1.00;;;;;;4918802;29;20346;-90
2022/03/08 01:55:34;;;;;;;12.40;7.97;;;-3.80;1.00;;;;;;4887302;29;20410;-95
2022/03/08 01:58:01;;;;;;;15.23;8.10;;;-3.80;1.00;;;;;;4890622;29;20043;-89
2022/03/08 02:00:30;;;;;;;13.67;7.70;;;-3.70;1.00;;;;;;4906405;29;20087;-96
2022/03/08 02:02:56;;;;;;;15.67;7.83;;;-3.80;1.00;;;;;;4906544;29;20142;-88
2022/03/08 02:05:23;;;;;;;16.10;7.97;;;-3.70;1.00;;;;;;4907003;29;20135;-95
2022/03/08 02:07:49;;;;;;;15.43;8.70;;;-3.70;5.60;;;;;;4906417;29;20130;-95
2022/03/08 02:10:15;;;;;;;13.33;8.10;;;-3.60;19.60;;;;;;4906620;29;20078;-96
2022/03/08 02:12:41;;;;;;;13.60;7.90;;;-3.60;25.50;;;;;;4906796;29;20043;-89
2022/03/08 02:15:11;;;;;;;15.67;8.57;;;-2.00;25.20;;;;;;4891051;29;20134;-95
2022/03/08 02:17:37;;;;;;;15.97;8.93;;;-3.60;35.90;;;;;;4906673;29;20047;-89
2022/03/08 02:20:03;;;;;;;19.77;9.47;;;-3.60;31.10;;;;;;4890829;29;20097;-89
2022/03/08 02:22:29;;;;;;;19.67;9.77;;;-3.50;50.60;;;;;;4890737;29;20044;-95
2022/03/08 02:24:55;;;;;;;19.27;9.03;;;-3.40;78.60;;;;;;4890294;29;20399;-89
2022/03/08 02:27:22;;;;;;;16.63;9.67;;;-3.30;98.40;;;;;;4906690;29;20103;-89
2022/03/08 02:29:49;;;;;;;16.67;10.63;;;-3.20;97.40;;;;;;4906100;29;20044;-91
2022/03/08 02:32:16;;;;;;;20.90;10.43;;;-3.30;92.60;;;;;;4906102;29;20048;-89
2022/03/08 02:34:42;;;;;;;18.10;9.33;;;-3.30;97.50;;;;;;4875133;29;20086;-90
2022/03/08 02:37:11;;;;;;;20.57;10.47;;;-2.80;94.70;;;;;;4906187;29;20109;-96
2022/03/08 02:39:38;;;;;;;23.10;11.50;;;-3.20;99.90;;;;;;4875400;29;20107;-89
2022/03/08 02:42:04;;;;;;;22.70;11.00;;;-3.20;99.90;;;;;;4905637;29;20114;-95
2022/03/08 02:44:31;;;;;;;17.27;10.67;;;-3.10;99.90;;;;;;4890623;29;20487;-89
2022/03/08 02:46:59;;;;;;;19.67;10.13;;;-3.00;99.90;;;;;;4905909;29;20394;-89
2022/03/08 02:49:26;;;;;;;19.73;11.07;;;-3.10;99.90;;;;;;4905945;29;20466;-95
2022/03/08 02:51:53;;;;;;;18.57;11.03;;;-3.00;99.90;;;;;;4905770;29;20451;-89
2022/03/08 02:54:18;;;;;;;21.13;11.27;;;-2.80;99.90;;;;;;4905369;29;20138;-89
2022/03/08 02:56:44;;;;;;;20.40;11.97;;;-2.00;99.90;;;;;;4906039;29;20203;-96
2022/03/08 02:59:10;;;;;;;17.87;11.10;;;-2.80;99.90;;;;;;4905348;29;20048;-95
2022/03/08 03:01:36;;;;;;;17.90;10.37;;;-2.70;99.90;;;;;;4905513;29;20094;-90
2022/03/08 03:04:02;;;;;;;20.20;10.67;;;-2.00;99.90;;;;;;4905850;29;20056;-92
2022/03/08 03:06:28;;;;;;;22.53;11.07;;;-3.30;96.40;;;;;;4905466;29;20167;-91
2022/03/08 03:08:54;;;;;;;21.93;12.43;;;-3.00;91.90;;;;;;4904146;29;20112;-89
2022/03/08 03:11:19;;;;;;;23.93;12.17;;;-3.40;81.60;;;;;;4874494;29;20048;-88
2022/03/08 03:13:45;;;;;;;20.67;11.90;;;-3.40;82.40;;;;;;4905848;29;20066;-92
2022/03/08 03:16:11;;;;;;;22.60;12.77;;;-3.20;70.90;;;;;;4889811;29;20062;-95
2022/03/08 03:18:37;;;;;;;23.63;11.83;;;-3.40;62.90;;;;;;4905379;29;20498;-93
2022/03/08 03:21:03;;;;;;;21.97;12.23;;;-3.40;64.70;;;;;;4889624;29;20103;-89
2022/03/08 03:23:28;;;;;;;19.83;11.80;;;-3.40;71.80;;;;;;4874106;29;20054;-93
2022/03/08 03:25:54;;;;;;;22.10;12.93;;;-3.40;62.10;;;;;;4889592;29;20407;-95
2022/03/08 03:28:20;;;;;;;21.70;13.60;;;-2.30;73.40;;;;;;4889898;29;20043;-89
2022/03/08 03:30:46;;;;;;;26.77;13.40;;;-3.50;87.00;;;;;;4904906;29;20044;-95
2022/03/08 03:33:12;;;;;;;27.27;13.63;;;-3.40;82.20;;;;;;4904980;29;20051;-89
2022/03/08 03:35:39;;;;;;;25.33;14.23;;;-3.40;91.60;;;;;;4889912;29;20551;-91
2022/03/08 03:38:05;;;;;;;26.00;14.40;;;-3.30;98.90;;;;;;4889591;29;20483;-95
2022/03/08 03:40:30;;;;;;;21.90;13.07;;;-3.00;98.80;;;;;;4889443;29;20058;-95
2022/03/08 03:42:56;;;;;;;23.87;13.90;;;-3.00;99.90;;;;;;4905148;29;20054;-93
2022/03/08 03:45:22;;;;;;;29.60;14.87;;;-2.50;99.90;;;;;;4889414;29;20051;-90
2022/03/08 03:47:48;;;;;;;26.67;14.40;;;-3.20;99.90;;;;;;4889307;29;20047;-91
2022/03/08 03:50:14;;;;;;;23.87;14.57;;;-3.10;99.90;;;;;;4873965;29;20522;-94
2022/03/08 03:52:40;;;;;;;24.60;14.50;;;-3.00;99.90;;;;;;4904991;29;20050;-89
2022/03/08 03:55:06;;;;;;;23.60;14.93;;;-2.90;99.90;;;;;;4904638;29;20050;-94
2022/03/08 03:57:32;;;;;;;27.77;15.53;;;-2.80;99.90;;;;;;4904708;29;20586;-95
2022/03/08 03:59:58;;;;;;;28.50;15.43;;;-2.10;99.90;;;;;;4885582;29;20090;-89
2022/03/08 04:02:23;;;;;;;23.07;14.00;;;-2.40;99.90;;;;;;4886218;29;20059;-94
2022/03/08 04:04:49;;;;;;;25.43;14.63;;;-2.50;99.90;;;;;;4886335;29;20136;-92
2022/03/08 04:07:15;;;;;;;25.77;14.47;;;-2.70;99.90;;;;;;4886344;29;20367;-94
2022/03/08 04:09:40;;;;;;;27.50;14.33;;;-2.30;99.90;;;;;;4886439;29;20080;-94
2022/03/08 04:12:07;;;;;;;23.90;15.03;;;-1.90;99.90;;;;;;4885646;29;20083;-89
2022/03/08 04:14:33;;;;;;;22.70;13.13;;;-2.70;99.90;;;;;;4870245;29;20052;-94
2022/03/08 04:16:59;;;;;;;24.07;13.37;;;-2.70;99.90;;;;;;4901023;29;20511;-93
2022/03/08 04:19:25;;;;;;;22.00;13.20;;;-2.70;99.90;;;;;;4885882;29;20044;-94
2022/03/08 04:21:51;;;;;;;24.80;14.43;;;-2.80;99.90;;;;;;4885556;29;20056;-88
2022/03/08 04:24:16;;;;;;;26.70;14.67;;;-2.90;99.90;;;;;;4885630;29;20052;-95
2022/03/08 04:26:42;;;;;;;25.83;14.10;;;-2.90;99.90;;;;;;4885296;29;20119;-89
2022/03/08 04:29:08;;;;;;;25.10;13.97;;;-2.10;99.90;;;;;;4885307;29;20095;-89
2022/03/08 04:31:34;;;;;;;25.37;14.53;;;-2.90;99.90;;;;;;4885144;29;20056;-95
2022/03/08 04:33:59;;;;;;;28.07;14.70;;;-3.00;99.90;;;;;;4885808;29;20079;-90
2022/03/08 04:36:25;;;;;;;27.60;14.57;;;-3.00;99.90;;;;;;4885112;29;20415;-88
2022/03/08 04:38:51;;;;;;;28.73;14.87;;;-3.10;99.90;;;;;;4884815;29;20135;-88
2022/03/08 04:41:17;;;;;;;27.70;14.73;;;-3.00;99.90;;;;;;4885212;29;20104;-88
2022/03/08 04:43:42;;;;;;;27.00;14.87;;;-2.60;99.90;;;;;;4885236;29;20055;-88
2022/03/08 04:46:08;;;;;;;24.17;14.53;;;-3.10;99.90;;;;;;4868142;29;20059;-92
2022/03/08 04:48:34;;;;;;;25.83;14.93;;;-3.20;99.90;;;;;;4869777;29;20040;-91
2022/03/08 04:50:59;;;;;;;28.83;15.63;;;-3.20;99.90;;;;;;4885260;29;20052;-89
2022/03/08 04:53:25;;;;;;;27.87;16.17;;;-3.30;99.90;;;;;;4869442;29;20044;-88
2022/03/08 04:55:51;;;;;;;30.03;15.40;;;-2.90;99.90;;;;;;4884387;29;20044;-94
2022/03/08 04:58:17;;;;;;;26.27;15.53;;;-3.30;99.90;;;;;;4884910;29;20056;-93
2022/03/08 05:00:43;;;;;;;30.87;17.23;;;-3.30;99.90;;;;;;4882443;29;20057;-92
2022/03/08 05:03:08;;;;;;;30.43;15.83;;;-3.40;99.90;;;;;;4902252;29;20063;-88
2022/03/08 05:05:34;;;;;;;33.33;17.40;;;-2.90;99.90;;;;;;4903550;29;20054;-89
2022/03/08 05:08:00;;;;;;;31.07;15.83;;;-3.00;99.90;;;;;;4872703;29;20139;-92
2022/03/08 05:10:27;;;;;;;35.87;17.30;;;-3.40;99.90;;;;;;4872440;29;20051;-88
2022/03/08 05:12:53;;;;;;;36.33;17.73;;;-2.50;99.90;;;;;;4903971;29;20131;-93
2022/03/08 05:15:18;;;;;;;29.90;16.93;;;-3.40;99.90;;;;;;4903579;29;20103;-95
2022/03/08 05:17:44;;;;;;;29.80;17.63;;;-3.30;99.90;;;;;;4887820;29;20051;-93
2022/03/08 05:20:11;;;;;;;31.50;17.13;;;-3.20;99.90;;;;;;4888316;29;20047;-95
2022/03/08 05:22:37;;;;;;;34.07;17.73;;;-3.20;99.90;;;;;;4903820;29;20040;-88
2022/03/08 05:25:04;;;;;;;37.43;18.43;;;-3.20;99.90;;;;;;4872373;29;20561;-88
2022/03/08 05:27:29;;;;;;;31.03;17.27;;;-3.30;99.90;;;;;;4919661;29;20049;-89
2022/03/08 05:29:56;;;;;;;30.40;17.20;;;-3.30;99.90;;;;;;4903764;29;20131;-88
2022/03/08 05:32:22;;;;;;;33.53;18.23;;;-3.20;99.90;;;;;;4905850;29;20047;-95
2022/03/08 05:34:48;;;;;;;33.63;18.20;;;-3.30;99.90;;;;;;4903842;29;20044;-88
2022/03/08 05:37:13;;;;;;;29.10;17.17;;;-3.40;99.90;;;;;;4906127;29;20051;-93
2022/03/08 05:39:39;;;;;;;33.30;17.50;;;-2.60;99.90;;;;;;4907106;29;20051;-89
2022/03/08 05:42:05;;;;;;;34.90;18.30;;;-3.10;99.90;;;;;;4875988;29;20044;-95
2022/03/08 05:44:31;;;;;;;28.30;16.23;;;-3.50;99.90;;;;;;4906902;29;20059;-91
2022/03/08 05:46:57;;;;;;;28.83;16.90;;;-3.50;99.90;;;;;;4906938;29;20100;-95
2022/03/08 05:49:23;;;;;;;31.23;17.37;;;-2.90;99.90;;;;;;4891814;29;20375;-94
2022/03/08 05:51:49;;;;;;;35.57;18.20;;;-3.60;99.90;;;;;;4906964;29;20126;-89
2022/03/08 05:54:15;;;;;;;35.70;18.67;;;-3.70;99.90;;;;;;4906545;29;20043;-94
2022/03/08 05:56:41;;;;;;;32.33;18.33;;;-3.70;99.90;;;;;;4906974;29;20054;-94
2022/03/08 05:59:06;;;;;;;35.40;19.40;;;-3.70;99.90;;;;;;4890664;29;20059;-89
2022/03/08 06:01:32;;;;;;;33.83;18.47;;;-3.60;99.90;;;;;;4891135;29;20106;-95
2022/03/08 06:03:58;;;;;;;33.03;18.97;;;-3.70;99.90;;;;;;4874986;29;20043;-89
2022/03/08 06:06:24;;;;;;;32.83;18.43;;;-3.70;99.90;;;;;;4890813;29;20095;-94
2022/03/08 06:08:50;;;;;;;36.33;20.33;;;-3.70;99.90;;;;;;4906137;29;20138;-94
2022/03/08 06:11:16;;;;;;;37.40;20.77;;;-3.70;99.90;;;;;;4890817;29;20043;-90
2022/03/08 06:13:42;;;;;;;41.10;20.50;;;-3.70;99.90;;;;;;4907147;29;20185;-95
2022/03/08 06:16:08;;;;;;;38.50;22.13;;;-3.60;99.90;;;;;;4906046;29;20086;-89
2022/03/08 06:18:33;;;;;;;43.17;21.00;;;-3.60;99.90;;;;;;4906192;29;20107;-94
2022/03/08 06:20:59;;;;;;;38.43;20.43;;;-3.50;99.90;;;;;;4906323;29;20047;-88
2022/03/08 06:23:25;;;;;;;37.37;21.93;;;-3.50;99.90;;;;;;4906214;29;20059;-90
2022/03/08 06:25:51;;;;;;;40.63;22.00;;;-2.90;99.90;;;;;;4905942;29;20046;-94
2022/03/08 06:28:16;;;;;;;38.37;21.87;;;-3.20;99.90;;;;;;4906352;29;20127;-89
2022/03/08 06:30:42;;;;;;;39.50;21.60;;;-3.10;99.90;;;;;;4875674;29;20051;-94
2022/03/08 06:33:08;;;;;;;38.57;21.73;;;-3.00;99.90;;;;;;4890658;29;20083;-89
2022/03/08 06:35:34;;;;;;;36.93;21.10;;;-2.90;99.90;;;;;;4890307;29;20040;-90
2022/03/08 06:38:00;;;;;;;33.27;19.97;;;-2.80;99.90;;;;;;4905494;29;20044;-93
2022/03/08 06:40:29;;;;;;;36.83;19.93;;;-2.70;99.90;;;;;;4906040;29;20130;-89
2022/03/08 06:42:55;;;;;;;37.83;19.73;;;-2.60;99.90;;;;;;4906504;29;20043;-89
2022/03/08 06:45:21;;;;;;;36.03;19.77;;;-2.50;99.90;;;;;;4905951;29;20456;-90
2022/03/08 06:47:46;;;;;;;34.03;19.00;;;-2.40;99.90;;;;;;4905781;29;20053;-89
2022/03/08 06:50:12;;;;;;;35.50;19.57;;;-2.30;99.90;;;;;;4874805;29;20079;-90
2022/03/08 06:52:38;;;;;;;33.50;18.33;;;-2.30;99.90;;;;;;4890189;29;20083;-95
2022/03/08 06:55:05;;;;;;;28.60;17.47;;;-2.20;99.90;;;;;;4905827;29;20039;-89
2022/03/08 06:57:30;;;;;;;33.03;18.40;;;-2.10;99.90;;;;;;4905240;29;20130;-95
2022/03/08 06:59:56;;;;;;;35.83;18.23;;;-2.00;99.90;;;;;;4905394;29;20555;-92
2022/03/08 07:02:23;;;;;;;35.67;18.20;;;-1.70;99.90;;;;;;4890334;29;20086;-95
2022/03/08 07:04:49;;;;;;;30.87;17.03;;;-2.00;99.90;;;;;;4874906;29;20047;-94
2022/03/08 07:07:14;;;;;;;33.27;16.90;;;-1.90;99.90;;;;;;4874534;29;20052;-96
2022/03/08 07:09:40;;;;;;;29.10;16.37;;;-0.90;99.90;;;;;;4905925;29;20044;-90
2022/03/08 07:12:06;;;;;;;28.63;16.77;;;-1.80;99.90;;;;;;4889862;29;20134;-93
2022/03/08 07:14:32;;;;;;;28.20;16.37;;;-1.80;99.90;;;;;;4905426;29;20535;-90
2022/03/08 07:16:58;;;;;;;29.50;16.43;;;-1.80;99.90;;;;;;4905345;29;20138;-95
2022/03/08 07:19:24;;;;;;;29.83;17.00;;;-1.70;99.90;;;;;;4905729;29;20066;-89
2022/03/08 07:21:50;;;;;;;29.17;16.83;;;-1.70;99.90;;;;;;4874057;29;20070;-95
2022/03/08 07:24:16;;;;;;;27.07;16.20;;;-1.60;99.90;;;;;;4905244;29;20066;-90
2022/03/08 07:26:42;;;;;;;30.27;17.13;;;-1.40;99.90;;;;;;4905312;29;20053;-95
2022/03/08 07:29:08;;;;;;;27.33;16.03;;;-1.30;99.90;;;;;;4905370;29;20107;-94
2022/03/08 07:31:34;;;;;;;28.97;17.07;;;-0.90;99.90;;;;;;4889707;29;20043;-94
2022/03/08 07:34:00;;;;;;;29.77;16.77;;;-1.00;99.90;;;;;;4904836;29;20044;-90
2022/03/08 07:36:26;;;;;;;29.03;16.13;;;-1.10;99.90;;;;;;4905274;29;20059;-90
2022/03/08 07:38:52;;;;;;;25.47;15.63;;;-1.20;99.90;;;;;;4904836;29;20059;-93
2022/03/08 07:41:18;;;;;;;26.03;16.20;;;-1.10;99.90;;;;;;4904833;29;20085;-89
2022/03/08 07:43:44;;;;;;;25.30;14.83;;;-1.00;99.90;;;;;;4905070;29;20047;-89
2022/03/08 07:46:10;;;;;;;28.30;14.73;;;-0.50;99.90;;;;;;4904280;29;20066;-89
2022/03/08 07:48:36;;;;;;;24.30;15.63;;;-0.80;99.90;;;;;;4905199;29;20047;-94
2022/03/08 07:51:03;;;;;;;28.43;17.50;;;-0.70;99.90;;;;;;4889283;29;20542;-94
2022/03/08 07:53:29;;;;;;;24.77;15.70;;;-0.70;99.90;;;;;;4904835;29;20491;-94
2022/03/08 07:55:55;;;;;;;22.83;14.77;;;-0.60;99.90;;;;;;4903952;29;20054;-90
2022/03/08 07:58:21;;;;;;;25.97;15.70;;;-0.40;99.90;;;;;;4904791;29;20079;-94
2022/03/08 08:00:47;;;;;;;24.87;14.77;;;-0.20;99.90;;;;;;4873340;29;20052;-90
2022/03/08 08:03:12;;;;;;;24.57;14.87;;;-0.30;99.90;;;;;;4904549;29;20150;-95
2022/03/08 08:05:39;;;;;;;22.90;14.77;;;-0.20;99.90;;;;;;4889043;29;20047;-95
2022/03/08 08:08:06;;;;;;;21.73;14.07;;;-0.10;99.90;;;;;;4874025;29;20055;-90
2022/03/08 08:10:32;;;;;;;21.60;14.47;;;0.10;99.90;;;;;;4904664;29;20058;-90
2022/03/08 08:12:59;;;;;;;21.47;14.20;;;0.20;99.90;;;;;;4904512;29;20163;-90
2022/03/08 08:15:25;;;;;;;23.10;13.30;;;0.30;96.30;;;;;;4904212;29;20054;-95
2022/03/08 08:17:50;;;;;;;20.43;13.67;;;0.50;62.80;;;;;;4889135;29;20127;-90
2022/03/08 08:20:17;;;;;;;19.20;12.30;;;0.60;33.10;;;;;;4888730;29;20062;-92
2022/03/08 08:22:43;;;;;;;20.63;13.20;;;0.70;1.00;;;;;;4888617;29;20043;-94
2022/03/08 08:25:10;;;;;;;19.90;12.30;;;0.90;1.00;;;;;;4904018;29;20096;-90
2022/03/08 08:27:37;;;;;;;20.13;12.43;;;1.10;1.00;;;;;;4873063;29;20079;-95
2022/03/08 08:30:07;;;;;;;17.00;12.07;;;1.10;1.00;;;;;;4873446;29;20043;-91
2022/03/08 08:32:33;;;;;;;18.50;11.87;;;1.30;1.00;;;;;;4888710;29;20114;-91
2022/03/08 08:34:59;;;;;;;17.43;11.83;;;1.50;1.00;;;;;;4904085;29;20131;-95
2022/03/08 08:37:25;;;;;;;20.53;11.90;;;1.60;99.90;;;;;;4903879;29;20495;-91
2022/03/08 08:39:51;;;;;;;18.33;11.33;;;1.60;99.90;;;;;;4904082;29;20135;-90
2022/03/08 08:42:17;;;;;;;14.43;10.57;;;1.80;99.90;;;;;;4904131;29;20422;-95
2022/03/08 08:44:43;;;;;;;17.73;11.30;;;2.10;99.90;;;;;;4888557;29;20448;-93
2022/03/08 08:47:08;;;;;;;15.40;10.80;;;2.10;99.90;;;;;;4919555;29;20092;-92
2022/03/08 08:49:34;;;;;;;16.47;10.67;;;2.40;99.90;;;;;;4873264;29;20130;-96
2022/03/08 08:52:00;;;;;;;17.77;10.70;;;2.40;99.90;;;;;;4904351;29;20351;-96
2022/03/08 08:54:26;;;;;;;15.57;10.27;;;2.40;99.90;;;;;;4905005;29;20048;-92
2022/03/08 08:56:57;;;;;;;20.00;10.53;;;2.60;99.90;;;;;;4904303;29;20055;-96
2022/03/08 08:59:23;;;;;;;15.43;10.73;;;2.70;99.90;;;;;;4904436;29;20435;-96
2022/03/08 09:01:49;;;;;;;16.50;9.93;;;2.80;99.90;;;;;;4889290;29;20181;-93
2022/03/08 09:04:15;;;;;;;16.30;9.77;;;2.90;99.90;;;;;;4906789;29;20043;-96
2022/03/08 09:06:42;;;;;;;15.37;10.10;;;3.10;99.90;;;;;;4889547;29;20058;-93
2022/03/08 09:09:07;;;;;;;12.10;9.00;;;3.20;99.90;;;;;;4890877;29;20044;-95
2022/03/08 09:11:33;;;;;;;13.90;9.47;;;3.60;98.60;;;;;;4907025;29;20051;-96
2022/03/08 09:13:59;;;;;;;13.63;9.23;;;3.40;97.60;;;;;;4890787;29;20040;-96
2022/03/08 09:16:26;;;;;;;13.70;8.77;;;3.50;99.90;;;;;;4913448;29;20138;-92
2022/03/08 09:18:57;;;;;;;13.90;9.23;;;3.60;1.00;;;;;;4909153;29;20084;-95
2022/03/08 09:21:32;;;;;;;14.60;9.00;;;3.70;1.00;;;;;;4907611;29;20052;-95
2022/03/08 09:24:08;;;;;;;12.33;8.10;;;3.80;1.00;;;;;;4909372;29;20047;-93
2022/03/08 09:26:38;;;;;;;13.70;8.53;;;3.90;46.20;;;;;;4907810;29;20048;-96
2022/03/08 09:29:04;;;;;;;13.10;8.53;;;4.00;1.00;;;;;;4905565;29;20056;-92
2022/03/08 09:31:30;;;;;;;12.30;8.38;;;4.50;1.00;;;;;;4890580;29;20063;-94
2022/03/08 09:33:58;;;;;;;10.10;7.82;;;4.40;1.00;;;;;;4893859;29;20047;-96
2022/03/08 09:36:24;;;;;;;11.35;8.07;;;4.40;1.00;;;;;;4908807;29;20054;-94
2022/03/08 09:39:08;;;;;;;12.40;8.40;;;4.90;1.00;;;;;;4893672;29;20111;-96
2022/03/08 09:41:40;;;;;;;9.93;7.68;;;4.50;1.00;;;;;;4911238;29;20058;-94
2022/03/08 09:44:13;;;;;;;14.40;8.23;;;4.70;1.00;;;;;;4910479;29;20487;-95
2022/03/08 09:46:40;;;;;;;10.38;7.53;;;4.70;99.90;;;;;;4903945;29;20047;-93
2022/03/08 09:49:06;;;;;;;10.18;6.60;;;5.10;1.00;;;;;;4905131;29;20074;-95
2022/03/08 09:51:37;;;;;;;11.50;7.57;;;5.00;99.90;;;;;;4905456;29;20055;-96
2022/03/08 09:54:04;;;;;;;9.32;7.20;;;5.30;99.90;;;;;;4903726;29;20558;-94
2022/03/08 09:56:31;;;;;;;12.52;7.10;;;5.20;99.90;;;;;;4903726;29;20491;-96
2022/03/08 09:58:59;;;;;;;10.50;7.00;;;5.20;99.90;;;;;;4903761;29;20040;-96
2022/03/08 10:01:26;;;;;;;9.82;6.93;;;5.40;99.90;;;;;;4904342;29;20048;-96
2022/03/08 10:03:52;;;;;;;8.45;6.45;;;5.50;99.90;;;;;;4903799;29;20059;-95
2022/03/08 10:06:20;;;;;;;11.00;6.35;;;5.60;99.90;;;;;;4890370;29;20048;-96
2022/03/08 10:08:46;;;;;;;8.60;6.20;;;5.80;4.50;;;;;;4904663;29;20047;-96
2022/03/08 10:11:14;;;;;;;10.50;5.55;;;5.90;1.00;;;;;;4903640;29;20489;-96
2022/03/08 10:13:50;;;;;;;8.23;6.03;;;6.10;99.90;;;;;;4904410;29;20131;-95
2022/03/08 10:16:26;;;;;;;6.93;5.20;;;6.70;99.90;;;;;;4919631;29;20044;-96
2022/03/08 10:18:57;;;;;;;8.30;5.13;;;7.80;1.00;;;;;;4907137;29;20048;-95
2022/03/08 10:21:45;;;;;;;8.63;4.80;;;9.00;99.90;;;;;;4907890;29;20466;-95
2022/03/08 10:24:23;;;;;;;6.45;4.72;;;9.80;1.00;;;;;;4907502;29;20040;-95
2022/03/08 10:27:01;;;;;;;7.60;5.13;;;10.40;1.00;;;;;;4923088;29;20134;-95
2022/03/08 10:29:30;;;;;;;7.63;4.60;;;11.00;1.00;;;;;;4907371;29;20377;-94
2022/03/08 10:32:19;;;;;;;5.22;4.03;;;11.30;1.00;;;;;;4907337;29;20048;-96
2022/03/08 10:34:47;;;;;;;7.18;4.40;;;11.60;1.00;;;;;;4923384;29;20134;-96
2022/03/08 10:37:20;;;;;;;6.53;4.32;;;11.80;1.00;;;;;;4906655;29;20114;-95
2022/03/08 10:40:03;;;;;;;;;;;12.10;1.00;;;;;;4920417;29;20063;-95
2022/03/08 10:42:31;;;;;;;5.70;4.67;;;12.20;1.00;;;;;;4906950;29;19930;-95
2022/03/08 10:45:11;;;;;;;6.93;4.07;;;12.40;1.00;;;;;;4906186;29;20284;-95
2022/03/08 10:47:52;;;;;;;5.43;4.57;;;12.60;1.00;;;;;;4907519;29;20392;-96
2022/03/08 10:50:19;;;;;;;6.25;4.53;;;12.70;1.00;;;;;;4906891;29;20070;-95
2022/03/08 10:52:47;;;;;;;3.88;3.47;;;12.60;1.00;;;;;;4906870;29;20122;-96
2022/03/08 10:55:18;;;;;;;5.18;3.83;;;12.60;1.00;;;;;;4906899;29;20044;-94
2022/03/08 10:57:49;;;;;;;4.80;3.22;;;12.80;1.00;;;;;;4906908;29;20047;-95
2022/03/08 11:00:22;;;;;;;5.88;3.42;;;12.80;1.00;;;;;;4907539;29;20143;-95
2022/03/08 11:02:59;;;;;;;5.78;3.85;;;12.40;1.00;;;;;;4907930;29;20086;-94
2022/03/08 11:05:30;;;;;;;4.40;3.50;;;12.50;1.00;;;;;;4906779;29;20506;-96
2022/03/08 11:07:57;;;;;;;5.43;3.35;;;12.60;1.00;;;;;;4907612;29;20054;-93
2022/03/08 11:10:24;;;;;;;6.13;2.95;;;12.60;1.00;;;;;;4907432;29;20138;-96
2022/03/08 11:12:52;;;;;;;4.10;3.03;;;12.50;1.00;;;;;;4891853;29;20079;-96
2022/03/08 11:15:22;;;;;;;3.05;2.60;;;12.50;1.00;;;;;;4908074;29;20472;-96
2022/03/08 11:17:52;;;;;;;5.85;2.90;;;12.60;1.00;;;;;;4910818;29;20040;-95
2022/03/08 11:20:20;;;;;;;3.65;2.80;;;12.80;1.00;;;;;;4907503;29;20128;-96
2022/03/08 11:22:47;;;;;;;3.63;3.10;;;12.80;1.00;;;;;;4906506;29;20134;-96
2022/03/08 11:25:18;;;;;;;3.92;2.95;;;12.80;1.00;;;;;;4907152;29;20047;-95
2022/03/08 11:27:46;;;;;;;3.28;2.90;;;13.00;1.00;;;;;;4906259;29;20036;-94
2022/03/08 11:30:17;;;;;;;3.75;2.78;;;13.10;1.00;;;;;;4905492;29;20131;-96
2022/03/08 11:33:10;;;;;;;5.95;3.17;;;13.10;1.00;;;;;;4908745;29;20106;-95
2022/03/08 11:35:52;;;;;;;4.60;3.20;;;13.20;1.00;;;;;;4906918;29;20107;-94
2022/03/08 11:38:18;;;;;;;5.15;3.05;;;13.20;1.00;;;;;;4907290;29;20506;-95
2022/03/08 11:41:02;;;;;;;4.57;3.03;;;13.50;1.00;;;;;;4921782;29;20062;-96
2022/03/08 11:43:43;;;;;;;5.13;3.40;;;13.60;1.00;;;;;;4905784;29;20048;-95
2022/03/08 11:46:21;;;;;;;5.80;3.92;;;13.80;1.00;;;;;;4908500;29;20046;-95
2022/03/08 11:48:56;;;;;;;4.50;3.70;;;14.10;1.00;;;;;;4907399;29;20044;-96
2022/03/08 11:51:23;;;;;;;5.47;3.53;;;14.30;1.00;;;;;;4905744;29;20491;-96
2022/03/08 11:54:02;;;;;;;5.78;3.85;;;14.40;1.00;;;;;;4905775;29;20418;-95
2022/03/08 11:56:29;;;;;;;6.03;4.03;;;14.50;1.00;;;;;;4905789;29;20525;-95
2022/03/08 11:59:09;;;;;;;4.97;3.53;;;14.50;1.00;;;;;;4905653;29;20050;-94
2022/03/08 12:01:36;;;;;;;4.13;3.47;;;14.40;1.00;;;;;;4906542;29;20139;-96
2022/03/08 12:04:10;;;;;;;4.65;3.65;;;14.10;1.00;;;;;;4907572;29;20044;-96
2022/03/08 12:06:37;;;;;;;5.07;3.40;;;14.20;1.00;;;;;;4906085;29;20114;-95
2022/03/08 12:09:10;;;;;;;6.05;3.25;;;14.20;1.00;;;;;;4906212;29;20047;-96
2022/03/08 12:11:47;;;;;;;4.57;3.30;;;14.00;1.00;;;;;;4906893;29;20051;-96
2022/03/08 12:14:14;;;;;;;6.32;3.50;;;14.00;1.00;;;;;;4908462;29;20134;-96
2022/03/08 12:16:44;;;;;;;4.25;3.20;;;13.80;1.00;;;;;;4908684;29;20096;-96
2022/03/08 12:19:11;;;;;;;4.97;3.30;;;13.90;1.00;;;;;;4907372;29;20075;-96
2022/03/08 12:21:43;;;;;;;4.80;3.35;;;13.80;1.00;;;;;;4906101;29;20040;-96
2022/03/08 12:24:15;;;;;;;3.88;2.97;;;13.80;1.00;;;;;;4907863;29;20133;-96
2022/03/08 12:26:52;;;;;;;4.03;2.90;;;13.70;1.00;;;;;;4907555;29;20514;-96
2022/03/08 12:29:24;;;;;;;4.47;2.70;;;13.70;1.00;;;;;;4907399;29;20107;-96
2022/03/08 12:31:56;;;;;;;4.90;3.13;;;13.80;1.00;;;;;;4906627;29;20052;-95
2022/03/08 12:34:47;;;;;;;6.07;3.60;;;14.00;1.00;;;;;;4905725;29;20142;-95
2022/03/08 12:37:16;;;;;;;4.80;2.58;;;14.10;1.00;;;;;;4906505;29;20047;-95
2022/03/08 12:39:54;;;;;;;7.43;3.00;;;14.00;1.00;;;;;;4905492;29;20527;-96
2022/03/08 12:42:47;;;;;;;2.53;2.08;;;14.10;1.00;;;;;;4906576;29;20459;-95